AirNav   Air Wisconsin pilot careers
 
 427 users online  

66CA Rancho San Simeon Airport
Cambria, California, USA

GOING TO CAMBRIA?


FAA INFORMATION EFFECTIVE 13 SEPTEMBER 2018

Location

FAA Identifier: 66CA
Lat/Long: 35-36-27.8940N / 121-06-36.6960W
35-36.464900N / 121-06.611600W
35.6077483 / -121.1101933
(estimated)
Elevation: 320 ft. / 98 m (estimated)
Variation: 15E (1985)
From city: 3 miles NW of CAMBRIA, CA
Time zone: UTC -7 (UTC -8 during Standard Time)
Zip code: 93428

Airport Operations

Airport use: Private use. Permission required prior to landing
Activation date: 09/1982
Control tower: no
ARTCC: OAKLAND CENTER
FSS: HAWTHORNE FLIGHT SERVICE STATION
Attendance: UNATNDD
Wind indicator: yes
Segmented circle: no

Nearby radio navigation aids

VOR radial/distance  VOR name  Freq  Var
PRBr245/23.9PASO ROBLES VORTAC114.3016E
MQOr305/27.4MORRO BAY VORTAC112.4016E
ROMr198/(38.6)PRIEST VOR110.0016E

 
NDB name  Hdg/Dist  Freq  Var  ID
HUNTER LIGGETT155/21.620915EHGT .... --. -

Airport Services

Airframe service: NONE
Powerplant service: NONE

Runway Information

Runway 1/19

Dimensions: 1800 x 65 ft. / 549 x 20 m
Surface: dirt
RUNWAY 1  RUNWAY 19
Traffic pattern: leftleft

Airport Ownership and Management from official FAA records

Ownership: Privately-owned
Owner: CLYDE WARREN
PO BOX 528
MURPHY, OR 97533
Manager: CLYDE WARREN
PO BOX 528
MURPHY, OR 97533

Airport Operational Statistics

Aircraft based on the field: 2
Single engine airplanes: 1
Helicopters: 1
    

Instrument Procedures

There are no published instrument procedures at 66CA.

Some nearby airports with instrument procedures:

KPRB - Paso Robles Municipal Airport (24 nm E)
KHGT - Tusi Army Heliport (Hunter Liggett) (24 nm N)
KSBP - San Luis County Regional Airport (32 nm SE)
KSMX - Santa Maria Public Airport/Capt G Allan Hancock Field (53 nm SE)
KVBG - Vandenberg Air Force Base (58 nm SE)
 
Loc | Ops | Rwys | IFR | FBO | Links
Com | Nav | Svcs | Stats | Notes


 
Area around 66CA (Rancho San Simeon Airport)
 
Road maps at: MapQuest Bing Google
 
Aerial photo
WARNING: Photo may not be current or correct
Aerial photo of 66CA (Rancho San Simeon Airport)
Photo by Andrew Brown
Photo taken 19-Jun-2010

Do you have a better or more recent aerial photo of Rancho San Simeon Airport that you would like to share? If so, please send us your photo.

 
Sectional chart

 
Airport distance calculator
Flying to Rancho San Simeon Airport? Find the distance to fly.

From to 66CA

Sunrise and sunset
Times for 23-Sep-2018
 Local
(UTC-7)
 Zulu
(UTC)
Morning civil twilight06:2913:29
Sunrise06:5413:54
Sunset18:5901:59
Evening civil twilight19:2502:25

Current date and time
Zulu (UTC)  23-Sep-2018 11:27:29
Local (UTC-7)  23-Sep-2018 04:27:29
 
METAR
KPRB 
24nm E 
231053Z AUTO 00000KT 10SM CLR 09/04 A2990 RMK AO2 SLP119 T00940039
KSBP 
32nm SE 
231056Z AUTO 31003KT 4SM BR OVC003 11/11 A2988 RMK AO2 SLP118 T01110106
KL52 
39nm SE 
231115Z AUTO 00000KT 9SM OVC004 12/11 A2989 RMK A01
TAF
KPRB 
24nm E 
230521Z 2306/2406 33008KT P6SM SKC FM231300 VRB03KT 1/2SM FG BKN001 FM231600 33006KT P6SM SKC FM232100 21012KT P6SM SKC FM240200 30008KT P6SM SKC
NOTAMs
Click for the latest NOTAMs
NOTAMs are issued by the DoD/FAA and will open in a separate window not controlled by AirNav.

 

 
 

Would you like to see your business listed on this page?

 If your business provides an interesting product or service to pilots, flight crews, aircraft, or users of the Rancho San Simeon Airport, you should consider listing it here.  To start the listing process, click on the button below
 
Add a business
 

Other Pages about Rancho San Simeon Airport

Update a link
 
Copyright © AirNav, LLC. All rights reserved. Privacy Policy  Contact